Pagrindinis puslapis
METAR-TAF:

METAR-TAF

Oro uostai :

Gran Kanarija, Ispanija

platuma: 27-56N, ilguma: 015-23W, Aukštis: 23 m

Dabartinis oras

Ataskaita buvo paskelbta 54 minutes, ne 04:00 UTC
Vėjas 14 kt iš Šiaurės/Šiaurės Vakarų
Temperatūra 16°C
Drėgmė 68%
Slėgis 1017 hPa
Matomumas 10 km arba daugiau
Mažai debesys ne aukštis 2800 ft

METAR: GCLP 220400Z 34014KT 9999 FEW028 16/10 Q1017 NOSIG

Laikas: 04:54 (04:54 UTC)

Prognozė

Ataskaita buvo paskelbta 2 valandos ir 54 minutes, ne 02:00 UTC
Prognozė galioja nuo 22 metu 03 UTC su 23 metu 03 UTC
Vėjas 15 kt iš Šiaurės Vakarų
Matomumas 10 km arba daugiau
Išsisklaidę debesys ne aukštis 3000 ft
Laikinai
nuo 22 metu 10 UTC su 22 metu 17 UTC
Vėjas 5 kt nuo kintamojo kryptimis
Tapsmas
nuo 22 metu 12 UTC su 22 metu 14 UTC
Matomumas: 3000 m
migla

TAF: GCLP 220200Z 2203/2303 32015KT 9999 SCT030 TX25/2214Z TN15/2206Z TEMPO 2210/2217 VRB05KT BECMG 2212/2214 3000 HZ

Orai ataskaitas ir orų prognozės (METAR, TAF).

turimą stotys yra geltonos ir raudonos taškus žemėlapyje.

Perkelti pele per norėdami pamatyti stoties vardą.

Tada spustelėkite, norėdami matyti oro stebėjimo ir prognozės.

Norėdami pakeisti žemėlapį: spustelėkite ant žalios mygtukų su juodo kryžiaus žemyn,; žalią mygtuką su brūkšneliu, jei norite nutolinti; arba žalių rodyklių gretimoms žemėlapius.


METAR-TAF: